MDT,Max TemperatureF,Mean TemperatureF,Min TemperatureF,Max Dew PointF,MeanDew PointF,Min DewpointF,Max Humidity, Mean Humidity, Min Humidity, Max Sea Level PressureIn, Mean Sea Level PressureIn, Min Sea Level PressureIn, Max VisibilityMiles, Mean VisibilityMiles, Min VisibilityMiles, Max Wind SpeedMPH, Mean Wind SpeedMPH, Max Gust SpeedMPH,PrecipitationIn, CloudCover, Events, WindDirDegrees
2011-10-1,90,69,48,36,33,29,54,33,11,29.98,29.87,29.77,10,10,10,25,12,32,T,0,,205
2011-10-2,79,63,46,46,39,35,65,44,23,29.96,29.91,29.87,10,10,10,15,6,20,0.00,0,,137
2011-10-3,84,66,47,40,35,24,71,42,12,30.01,29.89,29.73,10,10,10,17,9,24,0.00,0,,136
2011-10-4,79,63,47,47,39,33,80,53,25,29.71,29.63,29.56,10,10,10,24,9,29,0.00,1,,191
2011-10-5,75,59,43,50,43,39,96,64,31,29.60,29.50,29.38,10,10,2,24,8,37,0.14,3,Rain,138
2011-10-6,52,48,43,50,47,42,100,93,86,29.64,29.53,29.39,10,8,2,16,10,22,0.62,8,Rain,297
2011-10-7,47,44,40,45,42,39,100,93,86,30.04,29.71,29.53,10,8,2,30,16,38,1.13,8,Rain,294
2011-10-8,52,46,39,39,37,33,100,75,50,30.29,30.19,30.02,10,10,10,13,5,15,0.01,6,Rain,274
2011-10-9,61,47,33,34,32,29,85,59,32,30.20,30.02,29.88,10,10,10,24,7,30,0.00,0,,138
2011-10-10,62,47,31,40,33,28,92,63,34,29.87,29.75,29.60,10,10,10,20,5,24,T,3,,190
2011-10-11,62,53,44,39,35,28,66,48,29,29.85,29.67,29.58,10,10,10,29,15,35,0.01,4,,251
2011-10-12,57,47,37,32,28,24,70,50,30,30.03,29.98,29.86,10,10,10,26,12,37,0.00,2,,263
2011-10-13,52,44,35,29,25,21,59,45,30,30.10,30.04,30.00,10,10,10,21,10,26,0.00,2,,280
2011-10-14,49,39,29,34,28,24,79,59,39,30.15,30.08,29.93,10,10,10,14,5,16,T,4,,122
2011-10-15,47,37,27,38,34,26,100,73,45,30.20,30.01,29.88,10,9,5,17,7,22,0.19,5,Rain,277
2011-10-16,50,39,27,40,32,24,93,70,46,30.20,30.10,30.02,10,10,5,12,4,13,0.03,4,Rain,136
2011-10-17,52,41,29,34,28,23,100,66,32,30.34,30.27,30.14,10,10,10,18,9,24,0.00,2,,279
2011-10-18,58,43,27,30,26,21,92,58,24,30.45,30.34,30.19,10,10,10,9,5,14,0.00,0,,183
2011-10-19,69,50,31,31,24,14,75,44,13,30.14,29.94,29.82,10,10,10,14,7,20,0.00,0,,162
2011-10-20,63,49,35,38,34,30,82,58,34,30.02,29.93,29.84,10,10,10,22,7,29,0.00,2,,283
2011-10-21,57,47,36,39,36,34,92,70,47,30.14,30.09,30.02,10,10,10,16,6,20,T,4,Rain,214
2011-10-22,62,52,42,36,33,27,70,49,27,30.09,30.00,29.91,10,10,10,29,14,35,0.00,3,,255
2011-10-23,61,51,40,36,31,23,76,50,23,30.04,29.97,29.92,10,10,10,30,12,40,0.00,3,,261
2011-10-24,48,40,31,41,36,29,96,79,62,30.13,29.98,29.88,10,10,7,28,6,38,0.42,7,Rain,255
2011-10-25,41,34,27,31,28,25,92,78,64,30.40,30.27,30.14,10,8,2,21,7,25,0.02,6,Snow,255
2011-10-26,45,32,19,28,23,17,100,71,33,30.39,30.24,30.03,10,8,1,21,8,25,0.01,3,Snow,222
2011-10-27,45,36,27,23,20,18,75,60,44,30.25,30.09,29.99,10,10,10,23,10,33,0.00,7,,267
2011-10-28,52,37,21,23,16,10,84,52,19,30.27,30.10,29.75,10,10,10,22,9,28,0.00,2,,187
2011-10-29,52,40,27,31,20,11,70,45,19,30.14,29.94,29.71,10,10,10,38,15,48,T,5,,282
2011-10-30,63,44,24,32,25,19,81,53,25,30.19,30.04,29.84,10,10,10,22,10,28,0.00,0,,257
2011-10-31,56,43,29,36,30,23,72,55,38,30.11,29.87,29.75,10,10,10,31,14,41,0.00,4,,275